Hathor — PHIY — position and weather

sailwx.info

Track history (hours):
 
Tides and Currents Weather Stations Pressure Air Temp Water Temp Dewpoint Dewpoint Depression Visibility Wind Speed Wind Dir Waves Ship Positions

Hathor

Last reported at 2018-Jan-19 03:30 UTC. Time now 2018-Jan-19 03:33 UTC.
Position N 59°46' E 028°14'.

Length 89 m; draft 3.4 m.

Type: Cargo ship. MMSI: 244176000.

Date/timePositionNaut miles runAvg speedWind from/ knotsBaromVisibWave heightAir tempDewpointWater temp
2018-Jan-19 03:30N 59°46' E 028°14'0 0.0
2018-Jan-19 03:00N 59°46' E 028°14'0 0.0
2018-Jan-19 02:30N 59°46' E 028°14'0 0.0
2018-Jan-19 01:51N 59°46' E 028°14'0 0.0
2018-Jan-19 01:30N 59°46' E 028°14'0 0.0
2018-Jan-19 00:54N 59°46' E 028°14'0 0.0
2018-Jan-19 00:21N 59°46' E 028°14'0 0.0
2018-Jan-18 23:51N 59°46' E 028°14'0 0.0
2018-Jan-18 23:21N 59°46' E 028°14'0 0.0
2018-Jan-18 22:54N 59°46' E 028°14'0 0.0
2018-Jan-18 22:24N 59°46' E 028°14'0 0.0
2018-Jan-18 21:54N 59°46' E 028°14'0 0.0
2018-Jan-18 21:24N 59°46' E 028°14'0 0.0
2018-Jan-18 20:54N 59°46' E 028°14'0 0.0
2018-Jan-18 20:24N 59°46' E 028°14'0 0.0
2018-Jan-18 19:54N 59°46' E 028°14'0 0.0
2018-Jan-18 19:24N 59°46' E 028°14'0 0.0
2018-Jan-18 18:54N 59°46' E 028°14'0 0.0
2018-Jan-18 18:24N 59°46' E 028°14'0 0.0
2018-Jan-18 17:57N 59°46' E 028°14'0 0.0
2018-Jan-18 17:27N 59°46' E 028°14'0 0.0
2018-Jan-18 16:57N 59°46' E 028°14'0 0.0
2018-Jan-18 16:27N 59°46' E 028°14'0 0.0
2018-Jan-18 16:00N 59°46' E 028°14'0 0.0
2018-Jan-18 15:27N 59°46' E 028°14'0 0.0
2018-Jan-18 14:57N 59°46' E 028°14'0 0.0
2018-Jan-18 14:27N 59°46' E 028°14'0 0.0
2018-Jan-18 13:57N 59°46' E 028°14'0 0.0
2018-Jan-18 13:30N 59°46' E 028°14'0 0.0
2018-Jan-18 12:57N 59°46' E 028°14'0 0.0
2018-Jan-18 12:30N 59°46' E 028°14'0 0.0
2018-Jan-18 12:00N 59°46' E 028°14'0 0.0
2018-Jan-18 11:30N 59°46' E 028°14'0 0.0
2018-Jan-18 11:00N 59°46' E 028°14'0 0.0
2018-Jan-18 10:30N 59°46' E 028°14'0 0.0
2018-Jan-18 10:00N 59°46' E 028°14'0 0.0
2018-Jan-18 09:30N 59°46' E 028°14'0 0.0
2018-Jan-18 09:00N 59°46' E 028°14'0 0.0
2018-Jan-18 08:30N 59°46' E 028°14'0 0.0
2018-Jan-18 08:00N 59°46' E 028°14'0 0.0
2018-Jan-18 07:30N 59°46' E 028°14'0 0.0
2018-Jan-18 07:00N 59°46' E 028°14'0 0.0
2018-Jan-18 06:30N 59°46' E 028°14'0 0.0
2018-Jan-18 06:00N 59°46' E 028°14'0 0.0
2018-Jan-18 05:30N 59°46' E 028°14'0 0.0
2018-Jan-18 05:00N 59°46' E 028°14'0 0.0
2018-Jan-18 04:30N 59°46' E 028°14'0 0.0
2018-Jan-18 04:00N 59°46' E 028°14'0 0.1
2018-Jan-18 03:30N 59°46' E 028°14'0 0.0
2018-Jan-18 03:00N 59°46' E 028°14'0 0.0
2018-Jan-18 02:30N 59°46' E 028°14'0 0.0
2018-Jan-18 02:00N 59°46' E 028°14'0 0.0
2018-Jan-18 01:30N 59°46' E 028°14'0 0.0
2018-Jan-18 01:00N 59°46' E 028°14'0 0.0
2018-Jan-18 00:00N 59°46' E 028°14'0 0.0
2018-Jan-17 23:54N 59°46' E 028°14'  
2018-Jan-11 23:40N 60°14' E 021°47'2 9.9
2018-Jan-11 23:27N 60°13' E 021°43'510.1
2018-Jan-11 23:00N 60°09' E 021°41'5 9.9
2018-Jan-11 22:30N 60°04' E 021°41'510.3
2018-Jan-11 22:00N 59°59' E 021°42'5 9.7
2018-Jan-11 21:30N 59°55' E 021°36'510.1
2018-Jan-11 21:00N 59°52' E 021°28'5 9.8
2018-Jan-11 20:30N 59°49' E 021°21'5 9.3
2018-Jan-11 20:00N 59°44' E 021°21'5 9.8
2018-Jan-11 19:30N 59°39' E 021°19'5 9.7
2018-Jan-11 19:00N 59°34' E 021°17'5 9.7
2018-Jan-11 18:31N 59°30' E 021°16'5 9.7
2018-Jan-11 18:00N 59°25' E 021°14'257 9.4
2018-Jan-10 14:44N 55°17' E 019°09'5 9.1
2018-Jan-10 14:10N 55°15' E 019°01'4 8.9
2018-Jan-10 13:44N 55°14' E 018°54'2 8.8
2018-Jan-10 13:30N 55°13' E 018°51'4 8.8
2018-Jan-10 13:00N 55°12' E 018°44'4 8.7
2018-Jan-10 12:30N 55°10' E 018°36'4 8.7
2018-Jan-10 12:00N 55°08' E 018°29'4 8.7
2018-Jan-10 11:30N 55°07' E 018°22'5 8.5
2018-Jan-10 10:56N 55°05' E 018°14'4 8.4
2018-Jan-10 10:27N 55°04' E 018°08'4 8.3
2018-Jan-10 10:00N 55°02' E 018°02'148 8.6
2018-Jan-09 16:41N 53°48' E 014°22'210.1
2018-Jan-09 16:30N 53°46' E 014°24'510.2
2018-Jan-09 16:00N 53°42' E 014°29'510.0
2018-Jan-09 15:30N 53°38' E 014°34'5 9.8
2018-Jan-09 15:00N 53°34' E 014°36'4 8.7
2018-Jan-09 14:30N 53°29' E 014°37'3 6.7
2018-Jan-09 14:01N 53°26' E 014°35'0 0.1
2018-Jan-09 13:29N 53°26' E 014°35'0 0.0
2018-Jan-09 12:59N 53°26' E 014°35'0 0.0
2018-Jan-09 12:29N 53°26' E 014°35'0 0.0
2018-Jan-09 11:59N 53°26' E 014°35'0 0.0
2018-Jan-09 11:29N 53°26' E 014°35'0 0.0
2018-Jan-09 10:59N 53°26' E 014°35'0 0.0
2018-Jan-09 10:29N 53°26' E 014°35'0 0.0
2018-Jan-09 09:59N 53°26' E 014°35'0 0.3
2018-Jan-09 09:30N 53°26' E 014°35'3 7.0
2018-Jan-09 09:00N 53°30' E 014°37'4 8.0
2018-Jan-09 08:31N 53°33' E 014°36'5 8.9
2018-Jan-09 08:00N 53°38' E 014°35'5 9.1
2018-Jan-09 07:30N 53°41' E 014°30'5 9.6
2018-Jan-09 07:00N 53°45' E 014°25'5 9.2
2018-Jan-09 06:30N 53°49' E 014°20'  
Track history (hours):
 
Tides and Currents Weather Stations Pressure Air Temp Water Temp Dewpoint Dewpoint Depression Visibility Wind Speed Wind Dir Waves Ship Positions

Hathor

Last reported at 2018-Jan-19 03:30 UTC. Time now 2018-Jan-19 03:33 UTC.
Position N 59°46' E 028°14'.

Length 89 m; draft 3.4 m.

Type: Cargo ship. MMSI: 244176000.

Date/timePositionNaut miles runAvg speedWind from/ knotsBaromVisibWave heightAir tempDewpointWater temp
2018-Jan-19 03:30N 59°46' E 028°14'0 0.0
2018-Jan-19 03:00N 59°46' E 028°14'0 0.0
2018-Jan-19 02:30N 59°46' E 028°14'0 0.0
2018-Jan-19 01:51N 59°46' E 028°14'0 0.0
2018-Jan-19 01:30N 59°46' E 028°14'0 0.0
2018-Jan-19 00:54N 59°46' E 028°14'0 0.0
2018-Jan-19 00:21N 59°46' E 028°14'0 0.0
2018-Jan-18 23:51N 59°46' E 028°14'0 0.0
2018-Jan-18 23:21N 59°46' E 028°14'0 0.0
2018-Jan-18 22:54N 59°46' E 028°14'0 0.0
2018-Jan-18 22:24N 59°46' E 028°14'0 0.0
2018-Jan-18 21:54N 59°46' E 028°14'0 0.0
2018-Jan-18 21:24N 59°46' E 028°14'0 0.0
2018-Jan-18 20:54N 59°46' E 028°14'0 0.0
2018-Jan-18 20:24N 59°46' E 028°14'0 0.0
2018-Jan-18 19:54N 59°46' E 028°14'0 0.0
2018-Jan-18 19:24N 59°46' E 028°14'0 0.0
2018-Jan-18 18:54N 59°46' E 028°14'0 0.0
2018-Jan-18 18:24N 59°46' E 028°14'0 0.0
2018-Jan-18 17:57N 59°46' E 028°14'0 0.0
2018-Jan-18 17:27N 59°46' E 028°14'0 0.0
2018-Jan-18 16:57N 59°46' E 028°14'0 0.0
2018-Jan-18 16:27N 59°46' E 028°14'0 0.0
2018-Jan-18 16:00N 59°46' E 028°14'0 0.0
2018-Jan-18 15:27N 59°46' E 028°14'0 0.0
2018-Jan-18 14:57N 59°46' E 028°14'0 0.0
2018-Jan-18 14:27N 59°46' E 028°14'0 0.0
2018-Jan-18 13:57N 59°46' E 028°14'0 0.0
2018-Jan-18 13:30N 59°46' E 028°14'0 0.0
2018-Jan-18 12:57N 59°46' E 028°14'0 0.0
2018-Jan-18 12:30N 59°46' E 028°14'0 0.0
2018-Jan-18 12:00N 59°46' E 028°14'0 0.0
2018-Jan-18 11:30N 59°46' E 028°14'0 0.0
2018-Jan-18 11:00N 59°46' E 028°14'0 0.0
2018-Jan-18 10:30N 59°46' E 028°14'0 0.0
2018-Jan-18 10:00N 59°46' E 028°14'0 0.0
2018-Jan-18 09:30N 59°46' E 028°14'0 0.0
2018-Jan-18 09:00N 59°46' E 028°14'0 0.0
2018-Jan-18 08:30N 59°46' E 028°14'0 0.0
2018-Jan-18 08:00N 59°46' E 028°14'0 0.0
2018-Jan-18 07:30N 59°46' E 028°14'0 0.0
2018-Jan-18 07:00N 59°46' E 028°14'0 0.0
2018-Jan-18 06:30N 59°46' E 028°14'0 0.0
2018-Jan-18 06:00N 59°46' E 028°14'0 0.0
2018-Jan-18 05:30N 59°46' E 028°14'0 0.0
2018-Jan-18 05:00N 59°46' E 028°14'0 0.0
2018-Jan-18 04:30N 59°46' E 028°14'0 0.0
2018-Jan-18 04:00N 59°46' E 028°14'0 0.1
2018-Jan-18 03:30N 59°46' E 028°14'0 0.0
2018-Jan-18 03:00N 59°46' E 028°14'0 0.0
2018-Jan-18 02:30N 59°46' E 028°14'0 0.0
2018-Jan-18 02:00N 59°46' E 028°14'0 0.0
2018-Jan-18 01:30N 59°46' E 028°14'0 0.0
2018-Jan-18 01:00N 59°46' E 028°14'0 0.0
2018-Jan-18 00:00N 59°46' E 028°14'0 0.0
2018-Jan-17 23:54N 59°46' E 028°14'  
2018-Jan-11 23:40N 60°14' E 021°47'2 9.9
2018-Jan-11 23:27N 60°13' E 021°43'510.1
2018-Jan-11 23:00N 60°09' E 021°41'5 9.9
2018-Jan-11 22:30N 60°04' E 021°41'510.3
2018-Jan-11 22:00N 59°59' E 021°42'5 9.7
2018-Jan-11 21:30N 59°55' E 021°36'510.1
2018-Jan-11 21:00N 59°52' E 021°28'5 9.8
2018-Jan-11 20:30N 59°49' E 021°21'5 9.3
2018-Jan-11 20:00N 59°44' E 021°21'5 9.8
2018-Jan-11 19:30N 59°39' E 021°19'5 9.7
2018-Jan-11 19:00N 59°34' E 021°17'5 9.7
2018-Jan-11 18:31N 59°30' E 021°16'5 9.7
2018-Jan-11 18:00N 59°25' E 021°14'257 9.4
2018-Jan-10 14:44N 55°17' E 019°09'5 9.1
2018-Jan-10 14:10N 55°15' E 019°01'4 8.9
2018-Jan-10 13:44N 55°14' E 018°54'2 8.8
2018-Jan-10 13:30N 55°13' E 018°51'4 8.8
2018-Jan-10 13:00N 55°12' E 018°44'4 8.7
2018-Jan-10 12:30N 55°10' E 018°36'4 8.7
2018-Jan-10 12:00N 55°08' E 018°29'4 8.7
2018-Jan-10 11:30N 55°07' E 018°22'5 8.5
2018-Jan-10 10:56N 55°05' E 018°14'4 8.4
2018-Jan-10 10:27N 55°04' E 018°08'4 8.3
2018-Jan-10 10:00N 55°02' E 018°02'148 8.6
2018-Jan-09 16:41N 53°48' E 014°22'210.1
2018-Jan-09 16:30N 53°46' E 014°24'510.2
2018-Jan-09 16:00N 53°42' E 014°29'510.0
2018-Jan-09 15:30N 53°38' E 014°34'5 9.8
2018-Jan-09 15:00N 53°34' E 014°36'4 8.7
2018-Jan-09 14:30N 53°29' E 014°37'3 6.7
2018-Jan-09 14:01N 53°26' E 014°35'0 0.1
2018-Jan-09 13:29N 53°26' E 014°35'0 0.0
2018-Jan-09 12:59N 53°26' E 014°35'0 0.0
2018-Jan-09 12:29N 53°26' E 014°35'0 0.0
2018-Jan-09 11:59N 53°26' E 014°35'0 0.0
2018-Jan-09 11:29N 53°26' E 014°35'0 0.0
2018-Jan-09 10:59N 53°26' E 014°35'0 0.0
2018-Jan-09 10:29N 53°26' E 014°35'0 0.0
2018-Jan-09 09:59N 53°26' E 014°35'0 0.3
2018-Jan-09 09:30N 53°26' E 014°35'3 7.0
2018-Jan-09 09:00N 53°30' E 014°37'4 8.0
2018-Jan-09 08:31N 53°33' E 014°36'5 8.9
2018-Jan-09 08:00N 53°38' E 014°35'5 9.1
2018-Jan-09 07:30N 53°41' E 014°30'5 9.6
2018-Jan-09 07:00N 53°45' E 014°25'5 9.2
2018-Jan-09 06:30N 53°49' E 014°20'  

Dump ship's entire track history